sensor_id;sensor_type;location;lat;lon;timestamp;temperature;humidity
17172;DHT22;8701;50.150;8.756;2023-03-14T00:02:39;10.50;99.90
17172;DHT22;8701;50.150;8.756;2023-03-14T00:06:42;10.50;99.90
17172;DHT22;8701;50.150;8.756;2023-03-14T00:10:45;10.50;99.90
17172;DHT22;8701;50.150;8.756;2023-03-14T00:14:47;10.50;99.90
17172;DHT22;8701;50.150;8.756;2023-03-14T00:18:49;10.50;99.90
17172;DHT22;8701;50.150;8.756;2023-03-14T00:22:52;10.60;99.90
17172;DHT22;8701;50.150;8.756;2023-03-14T00:26:55;10.60;99.90
17172;DHT22;8701;50.150;8.756;2023-03-14T00:30:57;10.60;99.90
17172;DHT22;8701;50.150;8.756;2023-03-14T00:35:00;10.70;99.90
17172;DHT22;8701;50.150;8.756;2023-03-14T00:39:02;10.70;99.90
17172;DHT22;8701;50.150;8.756;2023-03-14T00:43:07;10.60;99.90
17172;DHT22;8701;50.150;8.756;2023-03-14T00:47:09;10.60;99.90
17172;DHT22;8701;50.150;8.756;2023-03-14T00:51:12;10.60;99.90
17172;DHT22;8701;50.150;8.756;2023-03-14T00:55:18;10.60;99.90
17172;DHT22;8701;50.150;8.756;2023-03-14T00:59:21;10.60;99.90
17172;DHT22;8701;50.150;8.756;2023-03-14T01:03:24;10.60;99.90
17172;DHT22;8701;50.150;8.756;2023-03-14T01:07:26;10.60;99.90
17172;DHT22;8701;50.150;8.756;2023-03-14T01:11:30;10.50;99.90
17172;DHT22;8701;50.150;8.756;2023-03-14T01:15:34;10.50;99.90
17172;DHT22;8701;50.150;8.756;2023-03-14T01:19:36;10.50;99.90
17172;DHT22;8701;50.150;8.756;2023-03-14T01:23:39;10.50;99.90
17172;DHT22;8701;50.150;8.756;2023-03-14T01:27:41;10.50;99.90
17172;DHT22;8701;50.150;8.756;2023-03-14T01:31:46;10.50;99.90
17172;DHT22;8701;50.150;8.756;2023-03-14T01:35:49;10.60;99.90
17172;DHT22;8701;50.150;8.756;2023-03-14T01:39:52;10.60;99.90
17172;DHT22;8701;50.150;8.756;2023-03-14T01:43:54;10.60;99.90
17172;DHT22;8701;50.150;8.756;2023-03-14T01:47:59;10.60;99.90
17172;DHT22;8701;50.150;8.756;2023-03-14T01:52:03;10.60;99.90
17172;DHT22;8701;50.150;8.756;2023-03-14T01:56:10;10.70;99.90
17172;DHT22;8701;50.150;8.756;2023-03-14T02:00:17;10.70;99.90
17172;DHT22;8701;50.150;8.756;2023-03-14T02:04:23;10.70;99.90
17172;DHT22;8701;50.150;8.756;2023-03-14T02:08:31;10.70;99.90
17172;DHT22;8701;50.150;8.756;2023-03-14T02:12:37;10.60;99.90
17172;DHT22;8701;50.150;8.756;2023-03-14T02:16:46;10.60;99.90
17172;DHT22;8701;50.150;8.756;2023-03-14T02:21:38;10.60;99.90
17172;DHT22;8701;50.150;8.756;2023-03-14T02:25:45;10.70;99.90
17172;DHT22;8701;50.150;8.756;2023-03-14T02:29:53;10.60;99.90
17172;DHT22;8701;50.150;8.756;2023-03-14T02:44:54;10.70;99.90
17172;DHT22;8701;50.150;8.756;2023-03-14T02:49:00;10.70;99.90
17172;DHT22;8701;50.150;8.756;2023-03-14T02:53:06;10.70;99.90
17172;DHT22;8701;50.150;8.756;2023-03-14T02:57:08;10.70;99.90
17172;DHT22;8701;50.150;8.756;2023-03-14T03:01:12;10.70;99.90
17172;DHT22;8701;50.150;8.756;2023-03-14T03:05:15;10.70;99.90
17172;DHT22;8701;50.150;8.756;2023-03-14T03:09:17;10.70;99.90
17172;DHT22;8701;50.150;8.756;2023-03-14T03:13:19;10.70;99.90
17172;DHT22;8701;50.150;8.756;2023-03-14T03:17:28;10.70;99.90
17172;DHT22;8701;50.150;8.756;2023-03-14T03:21:30;10.70;99.90
17172;DHT22;8701;50.150;8.756;2023-03-14T03:25:32;10.70;99.90
17172;DHT22;8701;50.150;8.756;2023-03-14T03:29:38;10.70;99.90
17172;DHT22;8701;50.150;8.756;2023-03-14T03:33:42;10.70;99.90
17172;DHT22;8701;50.150;8.756;2023-03-14T03:37:44;10.70;99.90
17172;DHT22;8701;50.150;8.756;2023-03-14T03:41:46;10.70;99.90
17172;DHT22;8701;50.150;8.756;2023-03-14T03:45:49;10.70;99.90
17172;DHT22;8701;50.150;8.756;2023-03-14T03:49:53;10.70;99.90
17172;DHT22;8701;50.150;8.756;2023-03-14T03:53:56;10.70;99.90
17172;DHT22;8701;50.150;8.756;2023-03-14T03:58:04;10.70;99.90
17172;DHT22;8701;50.150;8.756;2023-03-14T04:02:06;10.70;99.90
17172;DHT22;8701;50.150;8.756;2023-03-14T04:06:12;10.70;99.90
17172;DHT22;8701;50.150;8.756;2023-03-14T04:10:17;10.70;99.90
17172;DHT22;8701;50.150;8.756;2023-03-14T04:14:33;10.70;99.90
17172;DHT22;8701;50.150;8.756;2023-03-14T04:18:47;10.70;99.90
17172;DHT22;8701;50.150;8.756;2023-03-14T04:22:52;10.70;99.90
17172;DHT22;8701;50.150;8.756;2023-03-14T04:26:54;10.70;99.90
17172;DHT22;8701;50.150;8.756;2023-03-14T04:30:56;10.70;99.90
17172;DHT22;8701;50.150;8.756;2023-03-14T04:35:01;10.70;99.90
17172;DHT22;8701;50.150;8.756;2023-03-14T04:39:04;10.70;99.90
17172;DHT22;8701;50.150;8.756;2023-03-14T04:43:10;10.70;99.90
17172;DHT22;8701;50.150;8.756;2023-03-14T04:47:18;10.70;99.90
17172;DHT22;8701;50.150;8.756;2023-03-14T04:51:23;10.70;99.90
17172;DHT22;8701;50.150;8.756;2023-03-14T04:55:29;10.70;99.90
17172;DHT22;8701;50.150;8.756;2023-03-14T04:59:33;10.80;99.90
17172;DHT22;8701;50.150;8.756;2023-03-14T05:03:47;10.80;99.90
17172;DHT22;8701;50.150;8.756;2023-03-14T05:08:09;10.80;99.90
17172;DHT22;8701;50.150;8.756;2023-03-14T05:12:21;10.70;99.90
17172;DHT22;8701;50.150;8.756;2023-03-14T05:16:32;10.80;99.90
17172;DHT22;8701;50.150;8.756;2023-03-14T05:20:54;10.80;99.90
17172;DHT22;8701;50.150;8.756;2023-03-14T05:25:16;10.80;99.90
17172;DHT22;8701;50.150;8.756;2023-03-14T05:29:47;10.80;99.90
17172;DHT22;8701;50.150;8.756;2023-03-14T05:34:08;10.80;99.90
17172;DHT22;8701;50.150;8.756;2023-03-14T05:38:29;10.70;99.90
17172;DHT22;8701;50.150;8.756;2023-03-14T05:42:50;10.70;99.90
17172;DHT22;8701;50.150;8.756;2023-03-14T05:47:09;10.80;99.90
17172;DHT22;8701;50.150;8.756;2023-03-14T05:51:22;10.80;99.90
17172;DHT22;8701;50.150;8.756;2023-03-14T05:55:24;10.80;99.90
17172;DHT22;8701;50.150;8.756;2023-03-14T05:59:38;10.70;99.90
17172;DHT22;8701;50.150;8.756;2023-03-14T06:03:55;10.70;99.90
17172;DHT22;8701;50.150;8.756;2023-03-14T06:07:58;10.70;99.90
17172;DHT22;8701;50.150;8.756;2023-03-14T06:12:02;10.70;99.90
17172;DHT22;8701;50.150;8.756;2023-03-14T06:16:10;10.70;99.90
17172;DHT22;8701;50.150;8.756;2023-03-14T06:20:15;10.70;99.90
17172;DHT22;8701;50.150;8.756;2023-03-14T06:24:17;10.70;99.90
17172;DHT22;8701;50.150;8.756;2023-03-14T06:28:22;10.70;99.90
17172;DHT22;8701;50.150;8.756;2023-03-14T06:32:25;10.70;99.90
17172;DHT22;8701;50.150;8.756;2023-03-14T06:36:32;10.70;99.90
17172;DHT22;8701;50.150;8.756;2023-03-14T06:40:35;10.70;99.90
17172;DHT22;8701;50.150;8.756;2023-03-14T06:44:41;10.70;99.90
17172;DHT22;8701;50.150;8.756;2023-03-14T06:48:44;10.70;99.90
17172;DHT22;8701;50.150;8.756;2023-03-14T06:52:49;10.70;99.90
17172;DHT22;8701;50.150;8.756;2023-03-14T06:56:56;10.70;99.90
17172;DHT22;8701;50.150;8.756;2023-03-14T07:00:58;10.70;99.90
17172;DHT22;8701;50.150;8.756;2023-03-14T07:05:06;10.70;99.90
17172;DHT22;8701;50.150;8.756;2023-03-14T07:09:12;10.70;99.90
17172;DHT22;8701;50.150;8.756;2023-03-14T07:13:19;10.80;99.90
17172;DHT22;8701;50.150;8.756;2023-03-14T07:17:29;10.70;99.90
17172;DHT22;8701;50.150;8.756;2023-03-14T07:21:32;10.80;99.90
17172;DHT22;8701;50.150;8.756;2023-03-14T07:25:40;10.80;99.90
17172;DHT22;8701;50.150;8.756;2023-03-14T07:29:43;10.80;99.90
17172;DHT22;8701;50.150;8.756;2023-03-14T07:33:46;10.80;99.90
17172;DHT22;8701;50.150;8.756;2023-03-14T07:37:49;10.80;99.90
17172;DHT22;8701;50.150;8.756;2023-03-14T07:41:56;10.80;99.90
17172;DHT22;8701;50.150;8.756;2023-03-14T07:46:02;10.90;99.90
17172;DHT22;8701;50.150;8.756;2023-03-14T07:50:05;10.90;99.90
17172;DHT22;8701;50.150;8.756;2023-03-14T07:54:07;10.90;99.90
17172;DHT22;8701;50.150;8.756;2023-03-14T07:58:11;11.00;99.90
17172;DHT22;8701;50.150;8.756;2023-03-14T08:02:13;10.90;99.90
17172;DHT22;8701;50.150;8.756;2023-03-14T08:06:15;10.90;99.90
17172;DHT22;8701;50.150;8.756;2023-03-14T08:10:17;10.90;99.90
17172;DHT22;8701;50.150;8.756;2023-03-14T08:14:27;10.90;99.90
17172;DHT22;8701;50.150;8.756;2023-03-14T08:18:30;11.00;99.90
17172;DHT22;8701;50.150;8.756;2023-03-14T08:22:32;11.00;99.90
17172;DHT22;8701;50.150;8.756;2023-03-14T08:26:34;11.00;99.90
17172;DHT22;8701;50.150;8.756;2023-03-14T08:30:38;11.00;99.90
17172;DHT22;8701;50.150;8.756;2023-03-14T08:34:40;11.00;99.90
17172;DHT22;8701;50.150;8.756;2023-03-14T08:38:42;11.00;99.90
17172;DHT22;8701;50.150;8.756;2023-03-14T08:42:45;11.10;99.90
17172;DHT22;8701;50.150;8.756;2023-03-14T08:46:49;11.10;99.90
17172;DHT22;8701;50.150;8.756;2023-03-14T08:50:51;11.20;99.90
17172;DHT22;8701;50.150;8.756;2023-03-14T08:54:53;11.10;99.90
17172;DHT22;8701;50.150;8.756;2023-03-14T08:58:55;11.00;99.90
17172;DHT22;8701;50.150;8.756;2023-03-14T09:02:59;11.20;99.90
17172;DHT22;8701;50.150;8.756;2023-03-14T09:07:01;11.30;99.90
17172;DHT22;8701;50.150;8.756;2023-03-14T09:11:07;11.30;99.90
17172;DHT22;8701;50.150;8.756;2023-03-14T09:15:10;11.30;99.90
17172;DHT22;8701;50.150;8.756;2023-03-14T09:19:14;11.40;99.90
17172;DHT22;8701;50.150;8.756;2023-03-14T09:23:16;11.40;99.90
17172;DHT22;8701;50.150;8.756;2023-03-14T09:27:18;11.40;99.90
17172;DHT22;8701;50.150;8.756;2023-03-14T09:31:20;11.50;99.90
17172;DHT22;8701;50.150;8.756;2023-03-14T09:35:24;11.60;99.90
17172;DHT22;8701;50.150;8.756;2023-03-14T09:39:26;11.80;99.90
17172;DHT22;8701;50.150;8.756;2023-03-14T09:43:30;11.90;99.90
17172;DHT22;8701;50.150;8.756;2023-03-14T09:47:34;12.00;99.90
17172;DHT22;8701;50.150;8.756;2023-03-14T09:51:39;12.00;99.90
17172;DHT22;8701;50.150;8.756;2023-03-14T09:55:42;12.00;99.90
17172;DHT22;8701;50.150;8.756;2023-03-14T09:59:46;11.90;99.90
17172;DHT22;8701;50.150;8.756;2023-03-14T10:03:49;11.80;99.90
17172;DHT22;8701;50.150;8.756;2023-03-14T10:07:54;11.80;99.90
17172;DHT22;8701;50.150;8.756;2023-03-14T10:11:57;11.70;99.90
17172;DHT22;8701;50.150;8.756;2023-03-14T10:16:02;11.70;99.90
17172;DHT22;8701;50.150;8.756;2023-03-14T10:20:05;11.70;99.90
17172;DHT22;8701;50.150;8.756;2023-03-14T10:24:19;11.60;99.90
17172;DHT22;8701;50.150;8.756;2023-03-14T10:28:24;11.60;99.90
17172;DHT22;8701;50.150;8.756;2023-03-14T10:32:33;11.60;99.90
17172;DHT22;8701;50.150;8.756;2023-03-14T10:36:35;11.60;99.90
17172;DHT22;8701;50.150;8.756;2023-03-14T10:40:39;11.60;99.90
17172;DHT22;8701;50.150;8.756;2023-03-14T10:44:42;11.70;99.90
17172;DHT22;8701;50.150;8.756;2023-03-14T10:48:45;11.70;99.90
17172;DHT22;8701;50.150;8.756;2023-03-14T10:52:48;11.70;99.90
17172;DHT22;8701;50.150;8.756;2023-03-14T10:57:00;11.60;99.90
17172;DHT22;8701;50.150;8.756;2023-03-14T11:05:29;11.70;99.90
17172;DHT22;8701;50.150;8.756;2023-03-14T11:09:36;11.60;99.90
17172;DHT22;8701;50.150;8.756;2023-03-14T11:13:52;11.40;99.90
17172;DHT22;8701;50.150;8.756;2023-03-14T11:18:27;11.40;99.90
17172;DHT22;8701;50.150;8.756;2023-03-14T11:22:38;11.30;99.90
17172;DHT22;8701;50.150;8.756;2023-03-14T11:26:47;11.20;99.90
17172;DHT22;8701;50.150;8.756;2023-03-14T11:30:53;11.00;99.90
17172;DHT22;8701;50.150;8.756;2023-03-14T11:34:57;11.00;99.90
17172;DHT22;8701;50.150;8.756;2023-03-14T11:39:00;11.00;99.90
17172;DHT22;8701;50.150;8.756;2023-03-14T11:43:10;11.00;99.90
17172;DHT22;8701;50.150;8.756;2023-03-14T11:47:19;11.00;99.90
17172;DHT22;8701;50.150;8.756;2023-03-14T11:51:24;11.00;99.90
17172;DHT22;8701;50.150;8.756;2023-03-14T11:55:30;11.10;99.90
17172;DHT22;8701;50.150;8.756;2023-03-14T11:59:45;11.20;99.90
17172;DHT22;8701;50.150;8.756;2023-03-14T12:03:54;11.20;99.90
17172;DHT22;8701;50.150;8.756;2023-03-14T12:08:24;11.20;99.90
17172;DHT22;8701;50.150;8.756;2023-03-14T12:12:29;11.10;99.90
17172;DHT22;8701;50.150;8.756;2023-03-14T12:16:35;11.10;99.90
17172;DHT22;8701;50.150;8.756;2023-03-14T12:20:40;11.10;99.90
17172;DHT22;8701;50.150;8.756;2023-03-14T12:24:47;10.80;99.90
17172;DHT22;8701;50.150;8.756;2023-03-14T12:28:51;10.50;99.90
17172;DHT22;8701;50.150;8.756;2023-03-14T12:33:27;10.40;99.90
17172;DHT22;8701;50.150;8.756;2023-03-14T12:37:35;10.40;99.90
17172;DHT22;8701;50.150;8.756;2023-03-14T12:41:42;10.40;99.90
17172;DHT22;8701;50.150;8.756;2023-03-14T12:46:07;10.50;99.90
17172;DHT22;8701;50.150;8.756;2023-03-14T12:50:31;10.60;99.90
17172;DHT22;8701;50.150;8.756;2023-03-14T12:54:40;10.50;99.90
17172;DHT22;8701;50.150;8.756;2023-03-14T12:58:58;10.60;99.90
17172;DHT22;8701;50.150;8.756;2023-03-14T13:03:16;10.70;99.90
17172;DHT22;8701;50.150;8.756;2023-03-14T13:07:34;10.70;99.90
17172;DHT22;8701;50.150;8.756;2023-03-14T13:11:40;10.60;99.90
17172;DHT22;8701;50.150;8.756;2023-03-14T13:15:46;10.40;99.90
17172;DHT22;8701;50.150;8.756;2023-03-14T13:19:50;10.50;99.90
17172;DHT22;8701;50.150;8.756;2023-03-14T13:23:56;10.50;99.90
17172;DHT22;8701;50.150;8.756;2023-03-14T13:28:01;10.50;99.90
17172;DHT22;8701;50.150;8.756;2023-03-14T13:32:16;10.50;99.90
17172;DHT22;8701;50.150;8.756;2023-03-14T13:36:22;10.80;99.90
17172;DHT22;8701;50.150;8.756;2023-03-14T13:40:26;11.00;99.90
17172;DHT22;8701;50.150;8.756;2023-03-14T13:44:33;11.30;99.90
17172;DHT22;8701;50.150;8.756;2023-03-14T13:48:42;11.70;99.90
17172;DHT22;8701;50.150;8.756;2023-03-14T13:52:45;11.90;99.90
17172;DHT22;8701;50.150;8.756;2023-03-14T13:56:59;11.80;99.90
17172;DHT22;8701;50.150;8.756;2023-03-14T14:01:05;11.60;99.90
17172;DHT22;8701;50.150;8.756;2023-03-14T14:05:12;11.30;99.90
17172;DHT22;8701;50.150;8.756;2023-03-14T14:09:16;11.40;99.90
17172;DHT22;8701;50.150;8.756;2023-03-14T14:13:21;11.40;99.90
17172;DHT22;8701;50.150;8.756;2023-03-14T14:17:30;11.30;99.90
17172;DHT22;8701;50.150;8.756;2023-03-14T14:21:33;10.90;99.90
17172;DHT22;8701;50.150;8.756;2023-03-14T14:25:36;10.70;99.90
17172;DHT22;8701;50.150;8.756;2023-03-14T14:29:39;10.70;99.90
17172;DHT22;8701;50.150;8.756;2023-03-14T14:33:44;10.70;99.90
17172;DHT22;8701;50.150;8.756;2023-03-14T14:37:46;10.30;99.90
17172;DHT22;8701;50.150;8.756;2023-03-14T14:45:59;9.60;99.90
17172;DHT22;8701;50.150;8.756;2023-03-14T14:50:04;9.30;99.90
17172;DHT22;8701;50.150;8.756;2023-03-14T14:54:13;9.40;99.90
17172;DHT22;8701;50.150;8.756;2023-03-14T14:58:20;9.50;99.90
17172;DHT22;8701;50.150;8.756;2023-03-14T15:02:32;9.50;99.90
17172;DHT22;8701;50.150;8.756;2023-03-14T15:06:38;9.50;99.90
17172;DHT22;8701;50.150;8.756;2023-03-14T15:10:42;9.40;99.90
17172;DHT22;8701;50.150;8.756;2023-03-14T15:14:44;9.30;99.90
17172;DHT22;8701;50.150;8.756;2023-03-14T15:18:52;9.30;99.90
17172;DHT22;8701;50.150;8.756;2023-03-14T15:22:56;9.40;99.90
17172;DHT22;8701;50.150;8.756;2023-03-14T15:26:58;9.30;99.90
17172;DHT22;8701;50.150;8.756;2023-03-14T15:31:01;9.10;99.90
17172;DHT22;8701;50.150;8.756;2023-03-14T15:35:04;9.00;99.90
17172;DHT22;8701;50.150;8.756;2023-03-14T15:39:09;8.90;99.90
17172;DHT22;8701;50.150;8.756;2023-03-14T15:43:11;8.80;99.90
17172;DHT22;8701;50.150;8.756;2023-03-14T15:47:14;8.70;99.90
17172;DHT22;8701;50.150;8.756;2023-03-14T15:51:16;8.50;99.90
17172;DHT22;8701;50.150;8.756;2023-03-14T15:55:20;8.30;99.90
17172;DHT22;8701;50.150;8.756;2023-03-14T15:59:22;8.20;99.90
17172;DHT22;8701;50.150;8.756;2023-03-14T16:03:25;8.30;99.90
17172;DHT22;8701;50.150;8.756;2023-03-14T16:07:27;8.50;99.90
17172;DHT22;8701;50.150;8.756;2023-03-14T16:11:30;8.50;99.90
17172;DHT22;8701;50.150;8.756;2023-03-14T16:15:33;8.50;99.90
17172;DHT22;8701;50.150;8.756;2023-03-14T16:19:35;8.30;99.90
17172;DHT22;8701;50.150;8.756;2023-03-14T16:23:39;8.30;99.90
17172;DHT22;8701;50.150;8.756;2023-03-14T16:27:42;8.30;99.90
17172;DHT22;8701;50.150;8.756;2023-03-14T16:31:44;8.40;99.90
17172;DHT22;8701;50.150;8.756;2023-03-14T16:35:53;8.40;99.90
17172;DHT22;8701;50.150;8.756;2023-03-14T16:39:56;8.40;99.90
17172;DHT22;8701;50.150;8.756;2023-03-14T16:44:00;8.40;99.90
17172;DHT22;8701;50.150;8.756;2023-03-14T16:48:02;8.20;99.90
17172;DHT22;8701;50.150;8.756;2023-03-14T16:52:06;8.20;99.90
17172;DHT22;8701;50.150;8.756;2023-03-14T16:56:08;8.10;99.90
17172;DHT22;8701;50.150;8.756;2023-03-14T17:00:13;8.10;99.90
17172;DHT22;8701;50.150;8.756;2023-03-14T17:04:16;7.90;99.90
17172;DHT22;8701;50.150;8.756;2023-03-14T17:08:19;7.80;99.90
17172;DHT22;8701;50.150;8.756;2023-03-14T17:12:21;7.60;99.90
17172;DHT22;8701;50.150;8.756;2023-03-14T17:16:25;7.60;99.90
17172;DHT22;8701;50.150;8.756;2023-03-14T17:20:28;7.50;99.90
17172;DHT22;8701;50.150;8.756;2023-03-14T17:24:30;7.50;99.90
17172;DHT22;8701;50.150;8.756;2023-03-14T17:28:32;7.40;99.90
17172;DHT22;8701;50.150;8.756;2023-03-14T17:32:36;7.40;99.90
17172;DHT22;8701;50.150;8.756;2023-03-14T17:36:38;7.30;99.90
17172;DHT22;8701;50.150;8.756;2023-03-14T17:40:41;7.30;99.90
17172;DHT22;8701;50.150;8.756;2023-03-14T17:44:47;7.30;99.90
17172;DHT22;8701;50.150;8.756;2023-03-14T17:48:51;7.20;99.90
17172;DHT22;8701;50.150;8.756;2023-03-14T17:52:55;7.20;99.90
17172;DHT22;8701;50.150;8.756;2023-03-14T17:56:57;7.10;99.90
17172;DHT22;8701;50.150;8.756;2023-03-14T18:01:07;7.00;99.90
17172;DHT22;8701;50.150;8.756;2023-03-14T18:05:12;7.00;99.90
17172;DHT22;8701;50.150;8.756;2023-03-14T18:09:14;7.00;99.90
17172;DHT22;8701;50.150;8.756;2023-03-14T18:13:16;6.90;99.90
17172;DHT22;8701;50.150;8.756;2023-03-14T18:17:19;6.90;99.90
17172;DHT22;8701;50.150;8.756;2023-03-14T18:21:22;6.90;99.90
17172;DHT22;8701;50.150;8.756;2023-03-14T18:25:25;6.80;99.90
17172;DHT22;8701;50.150;8.756;2023-03-14T18:29:27;6.90;99.90
17172;DHT22;8701;50.150;8.756;2023-03-14T18:33:29;6.90;99.90
17172;DHT22;8701;50.150;8.756;2023-03-14T18:37:38;6.90;99.90
17172;DHT22;8701;50.150;8.756;2023-03-14T18:41:41;6.90;99.90
17172;DHT22;8701;50.150;8.756;2023-03-14T18:45:43;6.90;99.90
17172;DHT22;8701;50.150;8.756;2023-03-14T18:49:45;7.00;99.90
17172;DHT22;8701;50.150;8.756;2023-03-14T18:53:49;7.00;99.90
17172;DHT22;8701;50.150;8.756;2023-03-14T18:57:51;7.00;99.90
17172;DHT22;8701;50.150;8.756;2023-03-14T19:01:54;7.00;99.90
17172;DHT22;8701;50.150;8.756;2023-03-14T19:05:57;7.10;99.90
17172;DHT22;8701;50.150;8.756;2023-03-14T19:10:01;7.10;99.90
17172;DHT22;8701;50.150;8.756;2023-03-14T19:14:03;7.10;99.90
17172;DHT22;8701;50.150;8.756;2023-03-14T19:18:05;7.00;99.90
17172;DHT22;8701;50.150;8.756;2023-03-14T19:22:10;7.00;99.90
17172;DHT22;8701;50.150;8.756;2023-03-14T19:26:14;7.00;99.90
17172;DHT22;8701;50.150;8.756;2023-03-14T19:30:18;6.90;99.90
17172;DHT22;8701;50.150;8.756;2023-03-14T19:34:22;7.00;99.90
17172;DHT22;8701;50.150;8.756;2023-03-14T19:38:24;7.00;99.90
17172;DHT22;8701;50.150;8.756;2023-03-14T19:42:28;7.00;99.90
17172;DHT22;8701;50.150;8.756;2023-03-14T19:46:31;7.10;99.90
17172;DHT22;8701;50.150;8.756;2023-03-14T19:50:36;7.00;99.90
17172;DHT22;8701;50.150;8.756;2023-03-14T19:54:38;7.00;99.90
17172;DHT22;8701;50.150;8.756;2023-03-14T19:58:43;7.00;99.90
17172;DHT22;8701;50.150;8.756;2023-03-14T20:02:45;6.90;99.90
17172;DHT22;8701;50.150;8.756;2023-03-14T20:06:49;6.90;99.90
17172;DHT22;8701;50.150;8.756;2023-03-14T20:10:53;7.00;99.90
17172;DHT22;8701;50.150;8.756;2023-03-14T20:14:56;7.00;99.90
17172;DHT22;8701;50.150;8.756;2023-03-14T20:18:59;7.00;99.90
17172;DHT22;8701;50.150;8.756;2023-03-14T20:23:01;7.10;99.90
17172;DHT22;8701;50.150;8.756;2023-03-14T20:27:03;7.10;99.90
17172;DHT22;8701;50.150;8.756;2023-03-14T20:31:07;7.10;99.90
17172;DHT22;8701;50.150;8.756;2023-03-14T20:35:11;7.00;99.90
17172;DHT22;8701;50.150;8.756;2023-03-14T20:39:14;7.00;99.90
17172;DHT22;8701;50.150;8.756;2023-03-14T20:43:16;7.00;99.90
17172;DHT22;8701;50.150;8.756;2023-03-14T20:47:20;6.90;99.90
17172;DHT22;8701;50.150;8.756;2023-03-14T20:51:22;6.90;99.90
17172;DHT22;8701;50.150;8.756;2023-03-14T20:55:25;6.90;99.90
17172;DHT22;8701;50.150;8.756;2023-03-14T20:59:28;6.90;99.90
17172;DHT22;8701;50.150;8.756;2023-03-14T21:03:31;6.80;99.90
17172;DHT22;8701;50.150;8.756;2023-03-14T21:07:34;6.90;99.90
17172;DHT22;8701;50.150;8.756;2023-03-14T21:11:41;6.70;99.90
17172;DHT22;8701;50.150;8.756;2023-03-14T21:15:47;6.60;99.90
17172;DHT22;8701;50.150;8.756;2023-03-14T21:19:50;6.70;99.90
17172;DHT22;8701;50.150;8.756;2023-03-14T21:23:58;6.60;99.90
17172;DHT22;8701;50.150;8.756;2023-03-14T21:28:02;6.60;99.90
17172;DHT22;8701;50.150;8.756;2023-03-14T21:32:05;6.60;99.90
17172;DHT22;8701;50.150;8.756;2023-03-14T21:36:09;6.60;99.90
17172;DHT22;8701;50.150;8.756;2023-03-14T21:40:12;6.60;99.90
17172;DHT22;8701;50.150;8.756;2023-03-14T21:44:14;6.60;99.90
17172;DHT22;8701;50.150;8.756;2023-03-14T21:48:19;6.60;99.90
17172;DHT22;8701;50.150;8.756;2023-03-14T21:52:23;6.50;99.90
17172;DHT22;8701;50.150;8.756;2023-03-14T21:56:26;6.60;99.90
17172;DHT22;8701;50.150;8.756;2023-03-14T22:00:28;6.50;99.90
17172;DHT22;8701;50.150;8.756;2023-03-14T22:04:32;6.50;99.90
17172;DHT22;8701;50.150;8.756;2023-03-14T22:08:37;6.50;99.90
17172;DHT22;8701;50.150;8.756;2023-03-14T22:12:39;6.40;99.90
17172;DHT22;8701;50.150;8.756;2023-03-14T22:21:25;6.40;99.90
17172;DHT22;8701;50.150;8.756;2023-03-14T22:25:27;6.40;99.90
17172;DHT22;8701;50.150;8.756;2023-03-14T22:29:29;6.40;99.90
17172;DHT22;8701;50.150;8.756;2023-03-14T22:33:31;6.30;99.90
17172;DHT22;8701;50.150;8.756;2023-03-14T22:37:35;6.30;99.90
17172;DHT22;8701;50.150;8.756;2023-03-14T22:41:37;6.30;99.90
17172;DHT22;8701;50.150;8.756;2023-03-14T22:45:39;6.30;99.90
17172;DHT22;8701;50.150;8.756;2023-03-14T22:49:42;6.30;99.90
17172;DHT22;8701;50.150;8.756;2023-03-14T22:53:47;6.30;99.90
17172;DHT22;8701;50.150;8.756;2023-03-14T22:57:50;6.30;99.90
17172;DHT22;8701;50.150;8.756;2023-03-14T23:01:52;6.30;99.90
17172;DHT22;8701;50.150;8.756;2023-03-14T23:05:55;6.20;99.90
17172;DHT22;8701;50.150;8.756;2023-03-14T23:09:58;6.10;99.90
17172;DHT22;8701;50.150;8.756;2023-03-14T23:14:01;6.00;99.90
17172;DHT22;8701;50.150;8.756;2023-03-14T23:18:03;5.90;99.90
17172;DHT22;8701;50.150;8.756;2023-03-14T23:22:05;5.90;99.90
17172;DHT22;8701;50.150;8.756;2023-03-14T23:26:12;5.80;99.90
17172;DHT22;8701;50.150;8.756;2023-03-14T23:30:16;5.70;99.90
17172;DHT22;8701;50.150;8.756;2023-03-14T23:34:18;5.60;99.90
17172;DHT22;8701;50.150;8.756;2023-03-14T23:38:20;5.70;99.90
17172;DHT22;8701;50.150;8.756;2023-03-14T23:42:25;5.50;99.90
17172;DHT22;8701;50.150;8.756;2023-03-14T23:46:29;5.50;99.90
17172;DHT22;8701;50.150;8.756;2023-03-14T23:50:34;5.40;99.90
17172;DHT22;8701;50.150;8.756;2023-03-14T23:54:36;5.40;99.90
17172;DHT22;8701;50.150;8.756;2023-03-14T23:58:40;5.30;99.90
